Declared Sites

SiteID SiteReference FullSiteName SiteType ArchiveStatus DeclarationTypesort descending Gazette Date Province Country Latitude Longitude
27815 9/2/078/0012-016 158 Pienaar Street, Richmond Building Register Heritage Register 26/08/1994 Northern Cape South Africa -31.413749 23.942959
27296 9/2/100/0002-052 Prison, Prison Street, Victoria West Building Register Heritage Register 26/08/1994 Northern Cape South Africa -31.402189 23.111638
28905 9/2/023/0033-034 11 D'Urban Row, Colesberg Building Register Heritage Register 26/08/1994 Northern Cape South Africa -30.719547 25.096545
28340 9/2/049/0120-011 Esmonde, 3 Loch Road, Kimberley Building Register Heritage Register 26/08/1994 Northern Cape South Africa -28.746006 24.775592
27860 9/2/073/0060 Shri Siva Subramanier and Marriamman Aulayam, Upper Valley Road, South End, Port Elizabeth Building Register Heritage Register 18/12/1998 Eastern Cape South Africa -33.970525 25.617633
28307 9/2/049/0120-063 3 Elsmere Road, Kimberley Building Register Heritage Register 26/08/1994 Northern Cape South Africa -28.747619 24.777261
28933 9/2/023/0033-001 11 Charl Cilliers Street, Colesberg Building Register Heritage Register 26/08/1994 Northern Cape South Africa -30.723226 25.098037
26404 9/2/337/0005 Police Station, Juana Square, Smithfield Building Register Heritage Register 12/09/1997 Free State South Africa -30.212500 26.531389
27237 9/2/100/0002-150 122 Church Street, Victoria West Building Register Heritage Register 26/08/1994 Northern Cape South Africa -31.401744 23.105395
26272 9/2/415/0004 Hime Bridge, Farm Platberg 1241, Klip River District Building Register Heritage Register 12/09/1997 KwaZulu-Natal South Africa -28.360885 30.011037
29015 9/2/019/0002-149 12 Grey Street, Carnarvon Building Register Heritage Register 09/12/1994 Northern Cape South Africa -30.968033 22.130331
28329 9/2/049/0120-026 28 Rendlesham Road, Kimberley Building Register Heritage Register 26/08/1994 Northern Cape South Africa -28.744910 24.778640
26478 9/2/316/0004 Badenhorst Building, Warden Street, Harrismith Building Register Heritage Register 16/02/1990 Free State South Africa -28.275490 29.130233
27824 9/2/078/0012-006 208 Paul Street, Richmond Building Register Heritage Register 26/08/1994 Northern Cape South Africa -31.417045 23.945855
26383 9/2/346/0001 First dwelling-house of President J P Hoffman and the family cemetery, Hoffmansrust, Wepener District Burial Grounds & Graves Register Heritage Register 21/09/1990 Free State South Africa -28.454111 26.796785
28315 9/2/049/0120-060 17 Milner Street, Kimberley Building Register Heritage Register 26/08/1994 Northern Cape South Africa -28.750475 24.775364
28442 9/2/049/0002-066 81 Main Road, Kimberley Building Register Heritage Register 26/08/1994 Northern Cape South Africa -28.753339 24.780594
27252 9/2/100/0002-133 136 Church Street, Victoria West Building Register Heritage Register 26/08/1994 Northern Cape South Africa -31.400779 23.103946
26862 9/2/228/0116 57 St Patrick's Road, Houghton Estate, Johannesburg Building Register Heritage Register 04/06/1993 Gauteng South Africa -26.172290 28.063540
28282 9/2/049/0120-102 38 Carrington Road, Kimberley Building Register Heritage Register 26/08/1994 Northern Cape South Africa -28.753219 24.773092
27826 9/2/078/0012-001 247 Church Street, Richmond Building Register Heritage Register 26/08/1994 Northern Cape South Africa -31.413401 23.946649
28964 9/2/022/0013/001 Old Dutch Reformed Memorial Hall, Main Street, Clanwilliam Building Register Heritage Register 04/06/1999 Western Cape South Africa -32.175930 18.892660
27770 9/2/078/0012-058 146 Pienaar Street, Richmond Building Register Heritage Register 26/08/1994 Northern Cape South Africa -31.414090 23.947443
27774 9/2/078/0012-057 21 Loop Street, Richmond Building Register Heritage Register 26/08/1994 Northern Cape South Africa -31.413443 23.943643
28504 9/2/035/0012-044 Cnr Bell and Berg Streets, Hanover Building Register Heritage Register 26/08/1994 Northern Cape South Africa -31.070331 24.443083
29246 9/2/018/0076 St Peter's Cemetery, Main Road, Mowbray, Cape Town Burial Grounds & Graves Register Heritage Register 18/12/1998 Western Cape South Africa -33.942299 18.467466
27285 9/2/100/0002-078 111 Church Street, Victoria West Building Register Heritage Register 26/08/1994 Northern Cape South Africa -31.400829 23.103559
28312 9/2/049/0120-057 3 Carrington Road, Kimberley Building Register Heritage Register 26/08/1994 Northern Cape South Africa -28.750619 24.777483
29026 9/2/019/0002-136 24 Daniel Street, Carnarvon Building Register Heritage Register 09/12/1994 Northern Cape South Africa -30.965967 22.129758
27803 9/2/078/0012-024 144 Pienaar Street, Richmond Building Register Heritage Register 26/08/1994 Northern Cape South Africa -31.413742 23.943205
26939 9/2/222/0020 Old Residency, 34 Taute Street, Ermelo Building Register Heritage Register 10/03/2000 Mpumalanga South Africa -26.525560 29.991150
29020 9/2/019/0002-145 1 End Street, Carnarvon Building Register Heritage Register 09/12/1994 Northern Cape South Africa -30.967901 22.125134
28542 9/2/035/0002-035 Erf 215, Market Street, Hanover Building Register Heritage Register 26/08/1994 Northern Cape South Africa -31.068160 24.442381
26504 9/2/309/0006 St Bartholomew Anglican Church, 27 van der Wath Street, Dewetsdorp Building Register Heritage Register 22/05/1998 Free State South Africa -29.580161 26.667858
28900 9/2/023/0033-039 6 Church Street, Colesberg Building Register Heritage Register 26/08/1994 Northern Cape South Africa -30.716661 25.099935
29037 9/2/019/0002-077 Standard Bank, Alheit Street, Carnarvon Building Register Heritage Register 09/12/1994 Northern Cape South Africa -30.966848 22.133041
27288 9/2/100/0002-076 89B Church Street, Victoria West Building Register Heritage Register 26/08/1994 Northern Cape South Africa -31.402301 23.105987
28503 9/2/035/0012-047 Rhyneveldt Street, Hanover Building Register Heritage Register 26/08/1994 Northern Cape South Africa -31.067267 24.441288
28380 9/2/049/0076 213 Dutoitspan Road, Kimberley Building Register Heritage Register 26/08/1994 Northern Cape South Africa -28.747373 24.775554
26458 9/2/324/0003 Kroonstad North Nederduitse Gereformeerde Church, Reitz, Symond and Malherbe Streets, Kroonstad Building Register Heritage Register 13/07/1990 Free State South Africa -27.650000 27.233333
59 9/2/003/0049 38 Somerset Street, Grahamstown Building Register Heritage Register 07/07/1995 Eastern Cape South Africa -32.250981 24.534919
26416 9/2/333/0004 Town Hall, Voortrekker Street, Reitz Building Register (Withdrawn) Heritage Register 18/08/1995 Free State South Africa -27.799267 28.430206
27243 9/2/100/0002-141 25 Helpmekaar Street, Victoria West Building Register Heritage Register 26/08/1994 Northern Cape South Africa -31.404800 23.120701
28521 9/2/035/0012-020 Standard Bank, cnr Market and Darling Streets, Hanover Building Register Heritage Register 26/08/1994 Northern Cape South Africa -31.068160 24.442381
26274 9/2/412/0014 Ottawa Estate Shree Emperumal Temple, Ottawa, Inanda District Building Register Heritage Register 30/08/1996 KwaZulu-Natal South Africa -29.672207 31.038888
27278 9/2/100/0002-085 103 Church Street, Victoria West Building Register Heritage Register 26/08/1994 Northern Cape South Africa -31.401415 23.104476
28335 9/2/049/0120-023 1 Smith Street, Kimberley Building Register Heritage Register 26/08/1994 Northern Cape South Africa -28.743550 24.778278
28303 9/2/049/0120-068 4 Belgrave Road, Kimberley Building Register Heritage Register 26/08/1994 Northern Cape South Africa -28.742464 24.777067
27320 9/2/100/0002-003 2 Daniel Hugo Street, Victoria West Building Register Heritage Register 26/08/1994 Northern Cape South Africa -31.402277 23.114493
28436 9/2/049/0002-138 28 Main Road, Kimberley Building Register Heritage Register 26/08/1994 Northern Cape South Africa -28.758117 24.786914

Pages

XLS
 
 

Search form